Time;durP1;ratioP1;P1;durP2;ratioP2;P2;SDS_P1;SDS_P2;PMS_P1;PMS_P2;Temp;Humidity;BMP_temperature;BMP_pressure;BME280_temperature;BME280_humidity;BME280_pressure;Samples;Min_cycle;Max_cycle;Signal;HPM_P1;HPM_P2
2021/12/14 00:01:09;;;;;;;;;13.25;12.25;;;;;9.23;69.94;102618.56;5050617;28;49742;-64
2021/12/14 00:03:39;;;;;;;;;14.75;13.00;;;;;9.27;70.05;102623.19;5050530;28;49632;-64
2021/12/14 00:06:04;;;;;;;;;18.00;14.75;;;;;9.26;69.68;102611.78;5050378;28;50739;-64
2021/12/14 00:08:36;;;;;;;;;22.25;18.25;;;;;9.24;70.14;102605.56;5050465;28;49677;-64
2021/12/14 00:13:51;;;;;;;;;13.75;12.75;;;;;9.25;69.48;102612.59;5055508;28;49774;-64
2021/12/14 00:16:16;;;;;;;;;18.25;17.00;;;;;9.23;69.65;102629.06;5050349;28;50424;-64
2021/12/14 00:18:42;;;;;;;;;12.75;12.75;;;;;9.10;69.13;102617.00;5050331;28;49659;-64
2021/12/14 00:21:19;;;;;;;;;17.75;14.00;;;;;9.18;68.99;102634.97;5049851;28;49863;-64
2021/12/14 00:24:06;;;;;;;;;21.50;16.00;;;;;9.15;69.10;102620.75;5052642;28;49676;-64
2021/12/14 00:26:37;;;;;;;;;14.75;12.25;;;;;8.73;69.99;102557.28;5053094;28;50292;-63
2021/12/14 00:29:04;;;;;;;;;15.75;14.00;;;;;9.11;69.31;102603.09;5053493;28;49767;-65
2021/12/14 00:31:30;;;;;;;;;18.25;14.50;;;;;9.18;69.37;102606.13;5053817;28;50101;-64
2021/12/14 00:33:59;;;;;;;;;13.00;11.75;;;;;9.14;68.73;102609.38;5053909;28;49757;-63
2021/12/14 00:36:24;;;;;;;;;10.00;9.25;;;;;9.14;69.83;102617.25;5053504;28;50584;-64
2021/12/14 00:38:56;;;;;;;;;20.25;14.75;;;;;9.15;68.78;102616.41;5053691;28;49601;-64
2021/12/14 00:41:26;;;;;;;;;14.75;14.00;;;;;9.04;69.59;102587.81;5035338;28;49856;-64
2021/12/14 00:43:51;;;;;;;;;13.50;12.00;;;;;9.16;70.11;102614.69;5053864;28;49729;-64
2021/12/14 00:46:18;;;;;;;;;12.75;12.75;;;;;9.16;70.00;102615.59;5053579;28;50610;-64
2021/12/14 00:48:45;;;;;;;;;15.75;14.00;;;;;9.13;69.27;102612.81;5053496;28;49749;-64
2021/12/14 00:51:11;;;;;;;;;14.75;12.25;;;;;9.00;69.31;102578.91;5053454;28;49946;-64
2021/12/14 00:53:37;;;;;;;;;11.00;9.00;;;;;9.10;69.20;102602.19;5053032;28;49999;-64
2021/12/14 00:56:08;;;;;;;;;16.00;13.25;;;;;9.10;70.24;102622.25;5053151;28;51579;-64
2021/12/14 00:58:35;;;;;;;;;19.50;14.25;;;;;9.11;69.91;102610.94;5053107;28;49803;-64
2021/12/14 01:01:09;;;;;;;;;12.50;11.75;;;;;9.10;69.70;102607.41;5053408;28;49890;-63
2021/12/14 01:03:38;;;;;;;;;13.50;12.00;;;;;9.04;70.16;102600.94;5053575;28;49725;-65
2021/12/14 01:06:07;;;;;;;;;17.50;14.00;;;;;9.12;70.54;102612.75;5053044;28;50546;-64
2021/12/14 01:08:36;;;;;;;;;13.50;13.50;;;;;9.03;69.92;102599.13;5053311;28;49872;-64
2021/12/14 01:11:11;;;;;;;;;18.75;15.00;;;;;9.12;70.37;102616.25;5053037;28;50057;-65
2021/12/14 01:13:42;;;;;;;;;12.25;11.00;;;;;9.10;70.38;102612.66;5052567;28;49927;-64
2021/12/14 01:24:09;;;;;;;;;11.50;10.25;;;;;8.94;68.99;102641.41;5053133;28;49747;-64
2021/12/14 01:26:38;;;;;;;;;11.75;10.50;;;;;8.80;69.71;102610.94;5052639;28;50625;-64
2021/12/14 01:29:10;;;;;;;;;11.75;9.00;;;;;8.93;69.79;102637.00;5052703;28;49830;-65
2021/12/14 01:31:39;;;;;;;;;10.25;8.50;;;;;8.87;69.22;102644.47;5052141;28;49689;-64
2021/12/14 01:34:08;;;;;;;;;7.00;7.00;;;;;8.84;69.57;102647.84;5052213;28;49791;-64
2021/12/14 01:41:58;;;;;;;;;9.75;9.00;;;;;8.91;69.95;102671.78;5052383;28;49912;-64
2021/12/14 01:44:27;;;;;;;;;8.00;8.00;;;;;8.89;69.98;102669.97;5051342;28;49692;-64
2021/12/14 01:46:59;;;;;;;;;8.25;8.25;;;;;8.88;69.25;102662.03;5052599;28;50848;-64
2021/12/14 01:49:29;;;;;;;;;13.25;13.00;;;;;8.89;69.60;102672.59;5052458;28;49706;-64
2021/12/14 01:51:59;;;;;;;;;12.75;10.25;;;;;8.91;69.81;102677.03;5052341;28;49867;-64
2021/12/14 01:54:30;;;;;;;;;11.00;9.00;;;;;8.87;70.13;102687.28;5052671;28;49846;-63
2021/12/14 01:56:56;;;;;;;;;12.75;10.75;;;;;8.81;70.16;102696.53;5033096;28;51765;-64
2021/12/14 01:59:28;;;;;;;;;12.50;12.50;;;;;8.68;70.71;102700.13;5052445;28;49682;-63
2021/12/14 02:02:18;;;;;;;;;11.50;11.50;;;;;8.78;70.78;102712.03;5052460;28;49788;-64
2021/12/14 02:04:45;;;;;;;;;15.00;12.00;;;;;8.82;71.41;102714.03;5052447;28;49745;-64
2021/12/14 02:07:13;;;;;;;;;10.00;10.00;;;;;8.80;70.86;102734.91;5052178;28;49885;-64
2021/12/14 02:09:39;;;;;;;;;14.00;14.00;;;;;8.79;71.39;102726.97;5052436;28;49845;-64
2021/12/14 02:12:11;;;;;;;;;16.25;16.00;;;;;8.78;70.58;102733.94;5051888;28;49713;-64
2021/12/14 02:14:37;;;;;;;;;16.50;14.00;;;;;8.65;70.11;102701.66;5034467;28;49847;-64
2021/12/14 02:17:07;;;;;;;;;11.25;11.25;;;;;8.82;69.96;102728.03;5051917;28;49872;-64
2021/12/14 02:19:37;;;;;;;;;17.50;13.25;;;;;8.81;70.47;102721.00;5052172;28;49550;-64
2021/12/14 02:22:05;;;;;;;;;13.00;9.75;;;;;8.83;70.44;102708.00;5052008;28;49849;-65
2021/12/14 02:24:31;;;;;;;;;8.75;7.25;;;;;8.79;70.86;102696.44;5052221;28;50003;-64
2021/12/14 02:26:58;;;;;;;;;13.00;9.50;;;;;8.69;69.90;102664.41;5051574;28;50531;-65
2021/12/14 02:29:25;;;;;;;;;26.00;19.00;;;;;8.89;70.60;102696.16;5033179;28;50052;-64
2021/12/14 02:31:52;;;;;;;;;14.00;13.50;;;;;8.80;69.95;102672.06;5051885;28;49755;-64
2021/12/14 02:34:18;;;;;;;;;13.50;13.50;;;;;8.83;70.98;102673.94;5052075;28;49973;-64
2021/12/14 02:36:47;;;;;;;;;13.75;12.25;;;;;8.78;70.71;102670.13;5051615;28;50455;-65
2021/12/14 02:42:05;;;;;;;;;15.25;13.00;;;;;8.90;70.84;102673.50;5051533;28;49684;-64
2021/12/14 02:44:31;;;;;;;;;20.75;14.00;;;;;8.80;70.84;102652.81;5051801;28;50037;-64
2021/12/14 02:47:05;;;;;;;;;16.00;12.75;;;;;8.93;70.20;102673.66;5054180;28;50546;-64
2021/12/14 02:49:33;;;;;;;;;20.00;15.00;;;;;8.98;70.60;102681.81;5051773;28;49648;-64
2021/12/14 02:52:06;;;;;;;;;21.75;14.50;;;;;8.97;71.47;102670.38;5051768;28;49730;-64
2021/12/14 02:54:36;;;;;;;;;15.00;13.75;;;;;9.04;71.25;102662.06;5051957;28;49856;-64
2021/12/14 02:57:12;;;;;;;;;18.75;13.75;;;;;9.06;70.56;102663.06;5051264;28;49919;-64
2021/12/14 02:59:39;;;;;;;;;14.25;13.00;;;;;9.04;70.62;102646.34;5051586;28;49882;-64
2021/12/14 03:02:09;;;;;;;;;18.50;16.00;;;;;8.99;70.15;102628.59;5051516;28;49759;-64
2021/12/14 03:04:42;;;;;;;;;21.50;15.75;;;;;8.99;70.48;102642.59;5051622;28;49850;-64
2021/12/14 03:07:11;;;;;;;;;16.75;13.25;;;;;8.94;69.61;102653.59;5051262;28;50120;-64
2021/12/14 03:10:00;;;;;;;;;17.25;16.50;;;;;8.92;70.64;102658.75;5051342;28;49783;-64
2021/12/14 03:12:41;;;;;;;;;16.50;15.50;;;;;8.66;70.53;102597.03;5051036;28;49593;-64
2021/12/14 03:15:17;;;;;;;;;18.75;17.25;;;;;8.95;70.32;102647.56;5051100;28;50129;-64
2021/12/14 03:17:45;;;;;;;;;13.75;13.75;;;;;9.01;70.12;102653.16;5050986;28;49747;-65
2021/12/14 03:20:19;;;;;;;;;13.50;12.50;;;;;8.99;70.38;102649.56;5051029;28;49659;-65
2021/12/14 03:22:48;;;;;;;;;14.50;13.25;;;;;9.00;69.87;102647.00;5050986;28;49813;-64
2021/12/14 03:25:15;;;;;;;;;12.75;10.75;;;;;8.88;70.58;102621.03;5051363;28;49901;-64
2021/12/14 03:27:43;;;;;;;;;16.00;14.50;;;;;8.99;71.19;102639.97;5050497;28;50447;-64
2021/12/14 03:30:31;;;;;;;;;16.25;14.00;;;;;9.03;69.97;102654.13;5051142;28;49752;-66
2021/12/14 03:33:12;;;;;;;;;11.00;10.50;;;;;8.99;70.30;102641.69;5050948;28;49684;-64
2021/12/14 03:35:43;;;;;;;;;16.25;10.75;;;;;9.03;70.92;102638.41;5051013;28;49769;-64
2021/12/14 03:38:16;;;;;;;;;11.50;11.50;;;;;9.07;70.67;102633.47;5050517;28;49823;-64
2021/12/14 03:40:42;;;;;;;;;21.50;17.50;;;;;9.05;69.52;102634.16;5050776;28;49625;-64
2021/12/14 03:43:08;;;;;;;;;18.50;14.00;;;;;9.05;70.86;102647.25;5050746;28;49692;-64
2021/12/14 03:45:34;;;;;;;;;11.75;10.00;;;;;9.02;70.38;102636.63;5051067;28;49736;-64
2021/12/14 03:48:02;;;;;;;;;14.00;10.75;;;;;9.03;70.40;102635.81;5050687;28;49771;-64
2021/12/14 03:50:41;;;;;;;;;12.00;12.00;;;;;9.01;70.01;102627.84;5050669;28;49775;-64
2021/12/14 03:53:11;;;;;;;;;9.50;9.50;;;;;8.94;69.66;102616.94;5049829;28;49738;-64
2021/12/14 03:55:42;;;;;;;;;13.75;11.00;;;;;8.14;69.97;102467.47;5050883;28;49736;-64
2021/12/14 03:58:14;;;;;;;;;14.00;13.00;;;;;8.99;69.37;102611.16;5049781;28;51022;-64
2021/12/14 04:00:44;;;;;;;;;14.00;11.50;;;;;8.97;69.68;102609.25;5050583;28;49687;-64
2021/12/14 04:03:14;;;;;;;;;18.75;13.50;;;;;8.84;69.52;102603.31;5050518;28;49959;-64
2021/12/14 04:05:41;;;;;;;;;14.25;12.75;;;;;8.11;70.47;102483.00;5050793;28;50011;-64
2021/12/14 04:08:07;;;;;;;;;12.50;12.50;;;;;8.94;70.70;102612.59;5050367;28;49775;-64
2021/12/14 04:10:35;;;;;;;;;14.25;12.25;;;;;8.94;70.09;102612.59;5050575;28;49715;-64
2021/12/14 04:13:01;;;;;;;;;10.75;10.75;;;;;8.95;70.21;102631.84;5050180;28;49821;-64
2021/12/14 04:15:27;;;;;;;;;10.00;10.00;;;;;8.94;70.72;102636.19;5050350;28;50036;-64
2021/12/14 04:17:53;;;;;;;;;9.75;9.75;;;;;8.91;70.14;102645.59;5050311;28;51191;-73
2021/12/14 04:20:23;;;;;;;;;12.25;12.25;;;;;8.69;70.31;102612.03;5050382;28;49669;-74
2021/12/14 04:22:49;;;;;;;;;18.50;18.50;;;;;8.89;70.79;102653.38;5050366;28;49715;-72
2021/12/14 04:25:19;;;;;;;;;13.50;12.50;;;;;8.91;70.74;102641.25;5050504;28;49695;-73
2021/12/14 04:27:45;;;;;;;;;10.50;10.25;;;;;8.92;69.52;102657.88;5049886;28;50633;-73
2021/12/14 04:30:17;;;;;;;;;13.25;12.00;;;;;8.87;69.62;102663.72;5050055;28;49968;-71
2021/12/14 04:32:49;;;;;;;;;18.00;14.75;;;;;8.63;69.99;102625.66;5050149;28;50031;-64
2021/12/14 04:35:16;;;;;;;;;11.75;11.00;;;;;8.77;70.09;102665.72;5050422;28;50019;-64
2021/12/14 04:37:43;;;;;;;;;14.50;12.50;;;;;8.74;69.71;102657.69;5049977;28;50574;-64
2021/12/14 04:40:23;;;;;;;;;11.50;11.00;;;;;8.38;70.28;102606.69;5050226;28;49815;-63
2021/12/14 04:54:01;;;;;;;;;9.75;9.75;;;;;8.56;70.79;102647.03;5049964;28;49683;-64
2021/12/14 04:56:34;;;;;;;;;11.75;8.50;;;;;8.58;70.42;102662.03;5049849;28;50081;-64
2021/12/14 04:59:13;;;;;;;;;11.50;10.25;;;;;8.64;70.43;102656.25;5049837;28;50645;-63
2021/12/14 05:01:41;;;;;;;;;16.00;14.75;;;;;8.40;69.73;102598.16;5031115;28;49801;-63
2021/12/14 05:04:10;;;;;;;;;9.50;9.00;;;;;8.68;69.81;102644.22;5049919;28;49770;-63
2021/12/14 05:06:54;;;;;;;;;9.00;7.50;;;;;8.64;70.32;102639.66;5050073;28;49978;-63
2021/12/14 05:09:28;;;;;;;;;14.75;11.00;;;;;8.54;69.58;102644.34;5049936;28;50347;-64
2021/12/14 05:11:56;;;;;;;;;13.50;11.25;;;;;8.66;69.93;102662.47;5052848;28;49675;-64
2021/12/14 05:14:24;;;;;;;;;12.00;11.75;;;;;8.50;70.43;102663.31;5053012;28;49958;-64
2021/12/14 05:16:54;;;;;;;;;12.25;11.00;;;;;8.26;70.05;102646.09;5053382;28;49993;-64
2021/12/14 05:19:23;;;;;;;;;16.75;13.50;;;;;7.74;70.75;102548.81;5053134;28;49752;-64
2021/12/14 05:21:50;;;;;;;;;17.50;13.00;;;;;8.46;70.60;102668.25;5053084;28;49769;-65
2021/12/14 05:24:21;;;;;;;;;14.50;11.50;;;;;8.52;70.53;102663.41;5034542;28;49999;-64
2021/12/14 05:26:50;;;;;;;;;15.25;13.25;;;;;8.56;69.91;102671.50;5052883;28;50012;-63
2021/12/14 05:29:16;;;;;;;;;16.50;12.50;;;;;8.56;70.04;102668.88;5052800;28;49959;-64
2021/12/14 05:31:48;;;;;;;;;12.25;12.25;;;;;8.53;69.22;102673.06;5052806;28;49673;-64
2021/12/14 05:34:14;;;;;;;;;16.00;13.25;;;;;8.55;69.76;102671.41;5053155;28;49694;-64
2021/12/14 05:36:44;;;;;;;;;22.00;13.00;;;;;8.54;70.13;102667.91;5053136;28;49949;-65
2021/12/14 05:44:17;;;;;;;;;13.75;12.25;;;;;8.49;69.90;102671.97;5052597;28;49698;-63
2021/12/14 05:46:50;;;;;;;;;16.75;13.75;;;;;8.43;70.36;102658.50;5052835;28;49675;-64
2021/12/14 05:49:18;;;;;;;;;12.50;9.75;;;;;8.50;70.17;102672.88;5052335;28;49738;-64
2021/12/14 05:51:44;;;;;;;;;16.50;12.50;;;;;8.42;70.04;102651.47;5052372;28;49818;-64
2021/12/14 05:54:09;;;;;;;;;14.25;13.50;;;;;8.47;71.17;102668.34;5052664;28;49751;-67
2021/12/14 05:56:35;;;;;;;;;14.00;12.50;;;;;8.51;70.33;102674.69;5052508;28;49647;-64
2021/12/14 05:59:04;;;;;;;;;12.25;11.50;;;;;8.52;70.42;102677.38;5034107;28;51409;-63
2021/12/14 06:01:32;;;;;;;;;19.75;17.75;;;;;8.57;70.19;102670.69;5052337;28;49742;-64
2021/12/14 06:04:01;;;;;;;;;13.25;13.25;;;;;8.55;70.08;102681.88;5052395;28;49686;-64
2021/12/14 06:06:34;;;;;;;;;17.75;15.25;;;;;8.56;69.91;102683.69;5052362;28;49834;-64
2021/12/14 06:09:06;;;;;;;;;16.25;14.75;;;;;8.53;70.80;102683.53;5052164;28;49681;-64
2021/12/14 06:11:33;;;;;;;;;11.75;11.00;;;;;8.61;71.23;102692.75;5051997;28;49674;-64
2021/12/14 06:13:58;;;;;;;;;18.00;16.25;;;;;8.46;70.23;102666.53;5051858;28;49930;-64
2021/12/14 06:16:26;;;;;;;;;13.50;11.50;;;;;8.64;70.20;102699.88;5052430;28;49572;-64
2021/12/14 06:18:52;;;;;;;;;15.00;12.25;;;;;8.62;70.39;102714.59;5051917;28;50718;-64
2021/12/14 06:21:28;;;;;;;;;13.75;13.50;;;;;8.62;70.45;102720.72;5051678;28;49795;-64
2021/12/14 06:24:01;;;;;;;;;14.00;12.00;;;;;8.65;70.41;102718.28;5052148;28;49710;-64
2021/12/14 06:26:42;;;;;;;;;13.75;12.75;;;;;8.58;70.53;102701.28;5052071;28;49913;-64
2021/12/14 06:29:18;;;;;;;;;18.00;17.50;;;;;8.68;70.08;102715.81;5057422;28;50965;-65
2021/12/14 06:31:45;;;;;;;;;15.25;14.00;;;;;8.60;70.07;102694.47;5051865;28;49824;-65
2021/12/14 06:34:21;;;;;;;;;16.75;13.75;;;;;8.55;70.31;102679.28;5051994;28;49900;-75
2021/12/14 06:36:51;;;;;;;;;9.75;8.25;;;;;8.67;70.48;102713.13;5052134;28;50100;-64
2021/12/14 06:39:17;;;;;;;;;12.75;11.00;;;;;8.68;70.12;102728.91;5051543;28;50409;-63
2021/12/14 06:41:43;;;;;;;;;11.25;11.25;;;;;8.65;70.51;102726.13;5051518;28;49678;-63
2021/12/14 06:44:09;;;;;;;;;12.25;8.00;;;;;8.65;70.96;102726.13;5052008;28;49919;-63
2021/12/14 06:46:40;;;;;;;;;12.50;12.50;;;;;8.69;70.91;102728.13;5051936;28;50010;-63
2021/12/14 06:49:12;;;;;;;;;9.25;9.25;;;;;8.69;70.73;102730.75;5051540;28;49733;-62
2021/12/14 06:52:03;;;;;;;;;9.75;9.75;;;;;8.68;70.70;102721.06;5051445;28;49656;-63
2021/12/14 06:54:30;;;;;;;;;12.25;10.75;;;;;8.71;70.33;102730.84;5048489;28;49968;-62
2021/12/14 06:56:59;;;;;;;;;10.50;10.50;;;;;8.74;70.11;102738.88;5050920;28;49933;-66
2021/12/14 06:59:26;;;;;;;;;12.75;12.25;;;;;8.71;69.96;102743.94;5051148;28;49786;-64
2021/12/14 07:01:59;;;;;;;;;7.75;7.75;;;;;8.75;69.58;102744.19;5051516;28;49673;-70
2021/12/14 07:04:31;;;;;;;;;13.25;11.00;;;;;8.29;70.16;102669.81;5069230;28;49792;-67
2021/12/14 07:07:09;;;;;;;;;15.50;13.00;;;;;8.24;70.79;102664.31;5021648;28;50093;-67
2021/12/14 07:09:45;;;;;;;;;15.25;12.00;;;;;8.34;70.17;102676.25;5032842;28;51893;-66
2021/12/14 07:12:20;;;;;;;;;17.00;16.25;;;;;8.74;70.17;102744.09;5031428;28;49771;-66
2021/12/14 07:15:06;;;;;;;;;12.75;7.50;;;;;8.00;70.02;102616.63;5050804;28;49788;-67
2021/12/14 07:17:42;;;;;;;;;13.25;11.25;;;;;8.65;69.59;102720.00;5032793;28;49955;-68
2021/12/14 07:20:22;;;;;;;;;11.00;11.00;;;;;8.76;70.30;102735.53;5051595;28;50487;-66
2021/12/14 07:22:51;;;;;;;;;21.25;13.75;;;;;8.76;69.70;102742.47;5051161;28;49847;-66
2021/12/14 07:25:38;;;;;;;;;12.50;11.75;;;;;8.37;70.35;102692.16;5050959;28;49683;-66
2021/12/14 07:28:17;;;;;;;;;14.25;13.00;;;;;8.62;69.72;102733.81;5050863;28;50054;-65
2021/12/14 07:30:46;;;;;;;;;12.25;11.25;;;;;8.62;70.43;102719.81;5050406;28;50814;-71
2021/12/14 07:33:16;;;;;;;;;12.25;12.25;;;;;8.68;70.70;102739.41;5049588;28;49798;-68
2021/12/14 07:35:56;;;;;;;;;18.75;16.00;;;;;8.73;70.55;102737.06;5050717;28;50069;-67
2021/12/14 07:38:32;;;;;;;;;19.50;17.25;;;;;8.50;70.66;102706.91;5051002;28;49891;-67
2021/12/14 07:41:06;;;;;;;;;14.50;14.25;;;;;8.74;70.75;102741.50;5050356;28;49657;-68
2021/12/14 07:43:43;;;;;;;;;18.00;18.00;;;;;8.70;69.65;102739.50;5051048;28;49668;-66
2021/12/14 07:46:18;;;;;;;;;18.00;16.50;;;;;8.64;70.54;102733.91;5050787;28;49806;-66
2021/12/14 07:48:50;;;;;;;;;17.50;15.25;;;;;8.74;69.52;102752.88;5055729;28;49997;-67
2021/12/14 07:51:19;;;;;;;;;18.00;16.50;;;;;8.14;69.81;102656.72;5050272;28;51725;-66
2021/12/14 07:53:54;;;;;;;;;26.75;19.75;;;;;8.76;69.89;102766.94;5050531;28;49805;-66
2021/12/14 07:56:46;;;;;;;;;19.00;16.25;;;;;8.76;70.36;102766.94;5032433;28;49691;-66
2021/12/14 07:59:22;;;;;;;;;14.00;14.00;;;;;8.82;69.59;102772.56;5050218;28;49845;-66
2021/12/14 08:02:05;;;;;;;;;20.50;18.25;;;;;8.61;69.14;102745.09;5050206;28;50362;-67
2021/12/14 08:04:34;;;;;;;;;24.00;22.75;;;;;8.78;69.78;102778.44;5049201;28;49925;-66
2021/12/14 08:07:00;;;;;;;;;24.25;18.25;;;;;8.82;69.41;102787.38;5050426;28;49707;-65
2021/12/14 08:09:54;;;;;;;;;21.50;21.50;;;;;8.81;69.92;102801.28;5045980;28;49812;-66
2021/12/14 08:12:32;;;;;;;;;27.25;21.50;;;;;8.82;69.59;102792.63;5043208;28;50249;-62
2021/12/14 08:15:28;;;;;;;;;26.75;23.50;;;;;8.76;69.98;102787.00;5048091;28;49909;-64
2021/12/14 08:17:58;;;;;;;;;25.50;22.25;;;;;8.85;68.82;102800.66;5016766;28;49889;-63
2021/12/14 08:20:25;;;;;;;;;20.50;19.25;;;;;8.65;69.62;102777.59;5049509;28;49838;-63
2021/12/14 08:22:51;;;;;;;;;17.50;16.75;;;;;8.68;69.60;102781.28;5050129;28;49972;-65
2021/12/14 08:25:24;;;;;;;;;23.75;19.00;;;;;8.78;69.11;102809.88;5048610;28;49754;-64
2021/12/14 08:28:01;;;;;;;;;19.75;18.00;;;;;8.80;70.00;102810.84;5050045;28;50139;-64
2021/12/14 08:30:29;;;;;;;;;20.50;15.00;;;;;8.82;69.74;102805.72;5052143;28;49655;-62
2021/12/14 08:32:54;;;;;;;;;17.75;16.75;;;;;8.86;69.74;102818.16;5049915;28;50017;-62
2021/12/14 08:35:20;;;;;;;;;18.50;15.75;;;;;8.89;70.38;102807.91;5049101;28;49752;-63
2021/12/14 08:37:52;;;;;;;;;22.25;15.25;;;;;8.85;70.15;102796.31;5048917;28;49914;-63
2021/12/14 08:40:25;;;;;;;;;19.50;18.00;;;;;8.56;68.90;102736.94;5052538;28;49750;-64
2021/12/14 08:43:08;;;;;;;;;18.50;18.50;;;;;9.02;69.02;102810.44;5049089;28;50811;-63
2021/12/14 08:45:47;;;;;;;;;20.75;16.50;;;;;9.07;68.89;102813.31;5052530;28;49944;-64
2021/12/14 08:48:21;;;;;;;;;25.00;21.75;;;;;9.08;69.64;102818.66;5053226;28;49779;-64
2021/12/14 08:50:57;;;;;;;;;21.50;19.00;;;;;9.09;69.76;102822.19;5034542;28;49822;-64
2021/12/14 08:53:29;;;;;;;;;19.75;15.75;;;;;8.48;68.74;102735.56;5044719;28;50540;-65
2021/12/14 08:55:58;;;;;;;;;19.75;19.75;;;;;9.15;68.96;102828.66;5050887;28;49872;-67
2021/12/14 08:58:24;;;;;;;;;18.75;18.25;;;;;8.74;68.64;102752.88;5059313;28;49592;-65
2021/12/14 09:00:54;;;;;;;;;22.00;22.00;;;;;9.22;68.52;102821.19;5057576;28;49802;-61
2021/12/14 09:03:32;;;;;;;;;24.50;20.75;;;;;9.22;68.78;102810.69;5056611;28;50888;-63
2021/12/14 09:06:03;;;;;;;;;21.25;17.75;;;;;9.23;68.64;102799.41;5055810;28;50107;-63
2021/12/14 09:08:29;;;;;;;;;21.25;18.50;;;;;9.27;68.66;102790.94;5057360;28;49625;-65
2021/12/14 09:10:56;;;;;;;;;23.25;19.75;;;;;8.98;69.11;102740.34;5074572;28;49885;-67
2021/12/14 09:13:23;;;;;;;;;24.25;20.00;;;;;9.26;68.21;102771.63;5055138;28;51697;-62
2021/12/14 09:16:02;;;;;;;;;21.50;17.00;;;;;9.36;67.37;102784.50;5074013;28;49843;-63
2021/12/14 09:18:32;;;;;;;;;20.00;19.00;;;;;9.45;68.04;102808.59;5073369;28;49568;-63
2021/12/14 09:21:03;;;;;;;;;25.50;22.75;;;;;9.43;67.88;102814.56;5073801;28;49726;-64
2021/12/14 09:23:33;;;;;;;;;22.25;20.50;;;;;9.46;68.21;102810.44;5073020;28;49585;-63
2021/12/14 09:26:03;;;;;;;;;22.75;21.00;;;;;9.50;68.14;102815.84;5071307;28;49746;-64
2021/12/14 09:28:30;;;;;;;;;29.50;18.75;;;;;9.44;67.63;102808.50;5071659;28;49797;-63
2021/12/14 09:31:00;;;;;;;;;24.25;21.75;;;;;9.58;68.06;102815.47;5071793;28;49844;-64
2021/12/14 09:33:28;;;;;;;;;23.00;19.50;;;;;9.54;67.89;102804.69;5071415;28;50482;-63
2021/12/14 09:35:57;;;;;;;;;19.25;17.25;;;;;9.60;67.49;102810.31;5071491;28;49688;-62
2021/12/14 09:38:33;;;;;;;;;20.75;17.50;;;;;9.39;66.82;102778.53;5071670;28;49946;-63
2021/12/14 09:41:02;;;;;;;;;21.25;18.50;;;;;9.55;67.34;102802.16;5072832;28;49901;-62
2021/12/14 09:43:28;;;;;;;;;15.75;14.50;;;;;9.71;67.07;102822.31;5073201;28;50828;-62
2021/12/14 09:45:58;;;;;;;;;26.50;24.75;;;;;9.54;66.93;102810.84;5072816;28;49662;-63
2021/12/14 09:48:34;;;;;;;;;18.75;17.25;;;;;9.37;67.26;102775.81;5055006;28;49788;-63
2021/12/14 09:51:07;;;;;;;;;14.00;12.50;;;;;9.77;67.79;102835.78;5073023;28;49683;-64
2021/12/14 09:53:36;;;;;;;;;21.75;14.00;;;;;9.62;67.37;102801.69;5072807;28;49917;-64
2021/12/14 09:56:03;;;;;;;;;22.25;19.00;;;;;9.85;66.45;102836.22;5071733;28;49902;-63
2021/12/14 09:58:35;;;;;;;;;17.00;12.50;;;;;9.81;67.06;102827.25;5072835;28;49542;-66
2021/12/14 10:01:05;;;;;;;;;17.25;16.50;;;;;9.92;66.84;102836.63;5072868;28;49837;-63
2021/12/14 10:03:31;;;;;;;;;20.25;17.50;;;;;9.92;66.49;102836.63;5073051;28;51174;-62
2021/12/14 10:06:03;;;;;;;;;18.25;16.00;;;;;9.85;66.22;102823.09;5053686;28;49790;-62
2021/12/14 10:08:34;;;;;;;;;23.50;20.00;;;;;9.94;66.28;102835.03;5072692;28;49750;-63
2021/12/14 10:11:12;;;;;;;;;18.00;16.25;;;;;9.96;65.99;102842.97;5072540;28;49967;-62
2021/12/14 10:13:42;;;;;;;;;23.25;20.50;;;;;9.85;66.06;102815.25;5072055;28;49782;-62
2021/12/14 10:16:09;;;;;;;;;19.50;19.50;;;;;9.96;65.95;102822.88;5072375;28;49790;-62
2021/12/14 10:18:42;;;;;;;;;24.75;20.75;;;;;9.98;66.51;102825.59;5072586;28;49743;-62
2021/12/14 10:21:26;;;;;;;;;22.75;19.25;;;;;9.86;65.90;102822.28;5072749;28;49731;-62
2021/12/14 10:23:52;;;;;;;;;27.25;22.75;;;;;9.99;66.40;102828.28;5072321;28;49937;-64
2021/12/14 10:26:20;;;;;;;;;25.00;20.50;;;;;10.05;65.99;102835.63;5072001;28;49798;-62
2021/12/14 10:28:49;;;;;;;;;28.25;21.25;;;;;10.13;65.99;102841.28;5072307;28;49726;-61
2021/12/14 10:31:29;;;;;;;;;26.00;25.00;;;;;9.71;65.95;102765.50;5072361;28;49580;-61
2021/12/14 10:33:58;;;;;;;;;23.75;22.00;;;;;10.19;66.86;102837.28;5071973;28;49792;-62
2021/12/14 10:36:33;;;;;;;;;20.75;17.75;;;;;10.04;65.93;102794.47;5071950;28;49733;-63
2021/12/14 10:39:21;;;;;;;;;28.25;23.75;;;;;10.09;65.42;102799.94;5072166;28;49710;-63
2021/12/14 10:44:56;;;;;;;;;27.25;21.50;;;;;10.19;65.73;102810.13;5015751;28;49958;-63
2021/12/14 10:47:25;;;;;;;;;26.25;24.25;;;;;10.19;66.28;102797.91;5071826;28;49679;-64
2021/12/14 10:49:52;;;;;;;;;24.00;21.75;;;;;10.49;65.60;102840.69;5072289;28;49960;-62
2021/12/14 10:52:23;;;;;;;;;27.25;25.75;;;;;10.56;65.11;102842.84;5053755;28;50069;-62
2021/12/14 10:54:52;;;;;;;;;20.25;17.50;;;;;10.60;64.73;102841.28;5071844;28;50700;-62
2021/12/14 10:57:21;;;;;;;;;31.25;28.50;;;;;10.58;64.92;102841.19;5071725;28;49721;-63
2021/12/14 10:59:50;;;;;;;;;32.25;30.25;;;;;10.62;65.31;102839.66;5071895;28;49797;-63
2021/12/14 11:02:20;;;;;;;;;27.25;23.25;;;;;10.67;64.68;102846.03;5053301;28;50047;-62
2021/12/14 11:04:55;;;;;;;;;28.75;25.75;;;;;10.69;64.71;102844.41;5071665;28;50525;-63
2021/12/14 11:07:38;;;;;;;;;30.00;26.50;;;;;10.73;64.62;102841.13;5070306;28;49826;-64
2021/12/14 11:10:20;;;;;;;;;25.75;25.25;;;;;10.77;64.77;102835.22;5071814;28;49694;-63
2021/12/14 11:12:49;;;;;;;;;19.50;19.25;;;;;10.71;64.33;102834.91;5071587;28;49809;-62
2021/12/14 11:15:23;;;;;;;;;26.50;22.75;;;;;10.77;64.51;102840.47;5071442;28;49741;-62
2021/12/14 11:20:51;;;;;;;;;32.75;29.00;;;;;10.74;64.37;102836.78;5071586;28;49774;-62
2021/12/14 11:23:39;;;;;;;;;27.75;26.50;;;;;10.77;64.92;102827.31;5071599;28;49640;-62
2021/12/14 11:26:16;;;;;;;;;27.50;23.50;;;;;10.85;65.08;102826.00;5052653;28;50478;-62
2021/12/14 11:29:13;;;;;;;;;28.00;24.75;;;;;10.94;64.57;102833.47;5071187;28;49611;-63
2021/12/14 11:31:44;;;;;;;;;30.50;27.25;;;;;10.97;63.86;102833.63;5071316;28;49586;-62
2021/12/14 11:34:37;;;;;;;;;30.50;26.75;;;;;10.96;63.56;102826.56;5071588;28;49717;-62
2021/12/14 11:37:11;;;;;;;;;30.50;27.25;;;;;10.85;64.54;102798.84;5067172;28;49706;-62
2021/12/14 11:39:43;;;;;;;;;29.75;28.50;;;;;11.05;64.72;102827.03;5071213;28;49640;-62
2021/12/14 11:42:28;;;;;;;;;17.75;16.75;;;;;10.52;63.85;102735.84;5071125;28;49794;-62
2021/12/14 11:45:04;;;;;;;;;34.50;29.50;;;;;10.87;64.40;102782.31;5071649;28;49923;-62
2021/12/14 11:47:42;;;;;;;;;31.00;26.75;;;;;11.10;63.40;102815.06;5071572;28;49821;-62
2021/12/14 11:50:22;;;;;;;;;30.00;28.25;;;;;9.87;64.31;102599.38;5070995;28;49786;-62
2021/12/14 11:53:00;;;;;;;;;27.00;24.75;;;;;11.09;64.12;102812.31;5071049;28;49633;-63
2021/12/14 11:55:31;;;;;;;;;31.50;25.75;;;;;11.06;64.16;102812.19;5071592;28;50222;-63
2021/12/14 11:58:18;;;;;;;;;29.75;28.00;;;;;11.06;64.63;102807.81;5070856;28;49682;-62
2021/12/14 12:01:09;;;;;;;;;23.50;23.50;;;;;11.09;63.82;102807.06;5071147;28;49577;-63
2021/12/14 12:03:44;;;;;;;;;31.25;27.50;;;;;11.12;64.20;102808.13;5070867;28;49932;-63
2021/12/14 12:09:31;;;;;;;;;27.75;25.00;;;;;11.02;63.93;102784.84;5071066;28;50523;-71
2021/12/14 12:12:28;;;;;;;;;27.25;27.00;;;;;11.18;64.59;102790.03;5070405;28;50190;-65
2021/12/14 12:15:11;;;;;;;;;30.25;25.75;;;;;11.26;64.15;102787.78;5064401;28;49872;-63
2021/12/14 12:17:47;;;;;;;;;36.50;30.00;;;;;10.89;64.00;102720.22;5071091;28;49624;-63
2021/12/14 12:20:33;;;;;;;;;27.00;22.00;;;;;11.31;63.92;102788.94;5074284;28;50863;-62
2021/12/14 12:23:04;;;;;;;;;28.25;26.00;;;;;11.39;63.87;102784.97;5074230;28;49737;-63